sensor_id;sensor_type;location;lat;lon;timestamp;pressure;altitude;pressure_sealevel;temperature;humidity
50394;BME280;36308;46.312;25.288;2023-08-31T00:01:30;95506.19;;;18.41;67.54
50394;BME280;36308;46.312;25.288;2023-08-31T00:03:55;95507.63;;;18.38;67.56
50394;BME280;36308;46.312;25.288;2023-08-31T00:06:21;95517.56;;;18.34;67.50
50394;BME280;36308;46.312;25.288;2023-08-31T00:08:47;95506.84;;;18.20;67.60
50394;BME280;36308;46.312;25.288;2023-08-31T00:11:13;95526.19;;;18.27;67.55
50394;BME280;36308;46.312;25.288;2023-08-31T00:13:40;95527.16;;;18.23;67.56
50394;BME280;36308;46.312;25.288;2023-08-31T00:16:05;95521.84;;;18.17;67.59
50394;BME280;36308;46.312;25.288;2023-08-31T00:18:31;95529.06;;;18.13;67.58
50394;BME280;36308;46.312;25.288;2023-08-31T00:20:56;95524.88;;;18.07;67.55
50394;BME280;36308;46.312;25.288;2023-08-31T00:23:22;95530.97;;;18.04;67.77
50394;BME280;36308;46.312;25.288;2023-08-31T00:25:48;95513.00;;;17.86;67.82
50394;BME280;36308;46.312;25.288;2023-08-31T00:28:17;95528.06;;;17.92;68.08
50394;BME280;36308;46.312;25.288;2023-08-31T00:30:43;95523.88;;;17.86;68.04
50394;BME280;36308;46.312;25.288;2023-08-31T00:33:10;95523.41;;;17.84;68.29
50394;BME280;36308;46.312;25.288;2023-08-31T00:35:36;95535.22;;;17.79;68.53
50394;BME280;36308;46.312;25.288;2023-08-31T00:38:02;95522.38;;;17.71;68.34
50394;BME280;36308;46.312;25.288;2023-08-31T00:40:30;95515.13;;;17.57;68.76
50394;BME280;36308;46.312;25.288;2023-08-31T00:42:57;95524.94;;;17.67;68.72
50394;BME280;36308;46.312;25.288;2023-08-31T00:45:23;95519.66;;;17.62;68.62
50394;BME280;36308;46.312;25.288;2023-08-31T00:47:49;95511.78;;;17.52;68.69
50394;BME280;36308;46.312;25.288;2023-08-31T00:50:15;95524.91;;;17.58;67.98
50394;BME280;36308;46.312;25.288;2023-08-31T00:52:44;95525.84;;;17.54;67.95
50394;BME280;36308;46.312;25.288;2023-08-31T00:55:10;95516.25;;;17.48;67.43
50394;BME280;36308;46.312;25.288;2023-08-31T00:57:36;95513.34;;;17.44;67.26
50394;BME280;36308;46.312;25.288;2023-08-31T01:00:02;95521.66;;;17.39;67.42
50394;BME280;36308;46.312;25.288;2023-08-31T01:05:14;95532.16;;;17.32;67.36
50394;BME280;36308;46.312;25.288;2023-08-31T01:10:47;95521.84;;;17.20;67.39
50394;BME280;36308;46.312;25.288;2023-08-31T01:13:19;95514.16;;;17.13;67.40
50394;BME280;36308;46.312;25.288;2023-08-31T01:15:51;95518.91;;;17.08;67.35
50394;BME280;36308;46.312;25.288;2023-08-31T01:18:21;95525.19;;;17.08;67.54
50394;BME280;36308;46.312;25.288;2023-08-31T01:20:50;95526.91;;;17.04;67.53
50394;BME280;36308;46.312;25.288;2023-08-31T01:23:21;95511.47;;;16.91;67.84
50394;BME280;36308;46.312;25.288;2023-08-31T01:25:52;95501.06;;;16.84;68.10
50394;BME280;36308;46.312;25.288;2023-08-31T01:28:18;95501.69;;;16.81;67.76
50394;BME280;36308;46.312;25.288;2023-08-31T01:30:43;95513.69;;;16.89;68.12
50394;BME280;36308;46.312;25.288;2023-08-31T01:33:09;95510.91;;;16.80;67.70
50394;BME280;36308;46.312;25.288;2023-08-31T01:35:41;95529.00;;;16.85;68.14
50394;BME280;36308;46.312;25.288;2023-08-31T01:38:08;95532.06;;;16.83;68.00
50394;BME280;36308;46.312;25.288;2023-08-31T01:43:03;95543.78;;;16.78;68.03
50394;BME280;36308;46.312;25.288;2023-08-31T01:45:32;95533.88;;;16.74;68.08
50394;BME280;36308;46.312;25.288;2023-08-31T01:47:59;95531.28;;;16.69;68.07
50394;BME280;36308;46.312;25.288;2023-08-31T01:50:25;95540.53;;;16.68;68.30
50394;BME280;36308;46.312;25.288;2023-08-31T01:52:51;95531.41;;;16.64;68.24
50394;BME280;36308;46.312;25.288;2023-08-31T01:55:18;95530.09;;;16.61;68.19
50394;BME280;36308;46.312;25.288;2023-08-31T01:57:44;95517.47;;;16.56;68.16
50394;BME280;36308;46.312;25.288;2023-08-31T02:00:10;95519.31;;;16.47;68.29
50394;BME280;36308;46.312;25.288;2023-08-31T02:02:36;95519.78;;;16.49;68.02
50394;BME280;36308;46.312;25.288;2023-08-31T02:05:02;95509.06;;;16.44;68.61
50394;BME280;36308;46.312;25.288;2023-08-31T02:07:30;95509.06;;;16.44;68.52
50394;BME280;36308;46.312;25.288;2023-08-31T02:09:55;95503.25;;;16.37;68.08
50394;BME280;36308;46.312;25.288;2023-08-31T02:12:21;95520.53;;;16.41;68.39
50394;BME280;36308;46.312;25.288;2023-08-31T02:14:46;95519.53;;;16.37;68.38
50394;BME280;36308;46.312;25.288;2023-08-31T02:17:12;95506.53;;;16.25;67.91
50394;BME280;36308;46.312;25.288;2023-08-31T02:19:37;95518.06;;;16.31;68.20
50394;BME280;36308;46.312;25.288;2023-08-31T02:22:03;95514.47;;;16.22;68.18
50394;BME280;36308;46.312;25.288;2023-08-31T02:24:29;95529.81;;;16.26;68.42
50394;BME280;36308;46.312;25.288;2023-08-31T02:26:55;95527.03;;;16.17;68.13
50394;BME280;36308;46.312;25.288;2023-08-31T02:29:21;95524.34;;;16.17;68.55
50394;BME280;36308;46.312;25.288;2023-08-31T02:31:47;95525.47;;;16.16;68.34
50394;BME280;36308;46.312;25.288;2023-08-31T02:34:12;95522.84;;;16.11;68.42
50394;BME280;36308;46.312;25.288;2023-08-31T02:36:38;95528.88;;;16.08;68.63
50394;BME280;36308;46.312;25.288;2023-08-31T02:39:03;95504.81;;;15.93;68.28
50394;BME280;36308;46.312;25.288;2023-08-31T02:41:29;95526.56;;;16.02;68.20
50394;BME280;36308;46.312;25.288;2023-08-31T02:43:55;95509.22;;;15.89;68.37
50394;BME280;36308;46.312;25.288;2023-08-31T02:46:20;95528.13;;;15.94;68.47
50394;BME280;36308;46.312;25.288;2023-08-31T02:48:46;95534.91;;;15.91;68.55
50394;BME280;36308;46.312;25.288;2023-08-31T02:51:11;95537.47;;;15.88;68.80
50394;BME280;36308;46.312;25.288;2023-08-31T02:53:37;95539.97;;;15.84;69.05
50394;BME280;36308;46.312;25.288;2023-08-31T02:56:02;95537.53;;;15.83;69.15
50394;BME280;36308;46.312;25.288;2023-08-31T02:58:28;95537.66;;;15.78;69.20
50394;BME280;36308;46.312;25.288;2023-08-31T03:00:53;95549.00;;;15.80;68.98
50394;BME280;36308;46.312;25.288;2023-08-31T03:03:19;95549.59;;;15.76;69.23
50394;BME280;36308;46.312;25.288;2023-08-31T03:05:45;95543.75;;;15.69;69.11
50394;BME280;36308;46.312;25.288;2023-08-31T03:08:11;95557.22;;;15.74;69.42
50394;BME280;36308;46.312;25.288;2023-08-31T03:10:37;95530.91;;;15.61;69.17
50394;BME280;36308;46.312;25.288;2023-08-31T03:13:03;95534.72;;;15.60;69.23
50394;BME280;36308;46.312;25.288;2023-08-31T03:15:29;95548.19;;;15.65;69.56
50394;BME280;36308;46.312;25.288;2023-08-31T03:17:54;95545.06;;;15.58;69.44
50394;BME280;36308;46.312;25.288;2023-08-31T03:20:20;95558.00;;;15.61;69.48
50394;BME280;36308;46.312;25.288;2023-08-31T03:22:45;95544.38;;;15.52;69.39
50394;BME280;36308;46.312;25.288;2023-08-31T03:25:11;95551.31;;;15.59;69.91
50394;BME280;36308;46.312;25.288;2023-08-31T03:27:37;95555.38;;;15.56;70.02
50394;BME280;36308;46.312;25.288;2023-08-31T03:30:03;95566.22;;;15.56;69.82
50394;BME280;36308;46.312;25.288;2023-08-31T03:32:29;95537.53;;;15.41;70.15
50394;BME280;36308;46.312;25.288;2023-08-31T03:34:54;95543.16;;;15.45;69.75
50394;BME280;36308;46.312;25.288;2023-08-31T03:37:20;95553.38;;;15.48;69.98
50394;BME280;36308;46.312;25.288;2023-08-31T03:39:47;95561.00;;;15.46;69.89
50394;BME280;36308;46.312;25.288;2023-08-31T03:42:13;95566.41;;;15.46;69.79
50394;BME280;36308;46.312;25.288;2023-08-31T03:44:38;95564.84;;;15.45;69.84
50394;BME280;36308;46.312;25.288;2023-08-31T03:47:04;95565.91;;;15.44;70.13
50394;BME280;36308;46.312;25.288;2023-08-31T03:49:29;95572.44;;;15.43;70.19
50394;BME280;36308;46.312;25.288;2023-08-31T03:51:57;95570.03;;;15.41;70.23
50394;BME280;36308;46.312;25.288;2023-08-31T03:54:22;95573.03;;;15.40;70.44
50394;BME280;36308;46.312;25.288;2023-08-31T03:56:48;95562.50;;;15.24;70.42
50394;BME280;36308;46.312;25.288;2023-08-31T03:59:13;95579.66;;;15.33;70.51
50394;BME280;36308;46.312;25.288;2023-08-31T04:01:39;95574.84;;;15.30;70.65
50394;BME280;36308;46.312;25.288;2023-08-31T04:04:05;95576.53;;;15.26;71.05
50394;BME280;36308;46.312;25.288;2023-08-31T04:06:31;95584.66;;;15.26;71.21
50394;BME280;36308;46.312;25.288;2023-08-31T04:08:56;95582.06;;;15.21;70.97
50394;BME280;36308;46.312;25.288;2023-08-31T04:11:22;95555.75;;;15.08;71.20
50394;BME280;36308;46.312;25.288;2023-08-31T04:13:48;95575.63;;;15.17;71.20
50394;BME280;36308;46.312;25.288;2023-08-31T04:16:13;95588.84;;;15.19;71.74
50394;BME280;36308;46.312;25.288;2023-08-31T04:18:39;95586.47;;;15.17;71.94
50394;BME280;36308;46.312;25.288;2023-08-31T04:21:05;95584.25;;;15.19;72.04
50394;BME280;36308;46.312;25.288;2023-08-31T04:23:31;95590.69;;;15.23;72.00
50394;BME280;36308;46.312;25.288;2023-08-31T04:25:56;95577.00;;;15.14;72.34
50394;BME280;36308;46.312;25.288;2023-08-31T04:28:23;95599.22;;;15.30;72.40
50394;BME280;36308;46.312;25.288;2023-08-31T04:30:49;95585.88;;;15.34;72.59
50394;BME280;36308;46.312;25.288;2023-08-31T04:33:15;95575.47;;;15.27;72.54
50394;BME280;36308;46.312;25.288;2023-08-31T04:35:41;95594.13;;;15.43;73.03
50394;BME280;36308;46.312;25.288;2023-08-31T04:38:07;95591.31;;;15.48;72.83
50394;BME280;36308;46.312;25.288;2023-08-31T04:40:32;95588.59;;;15.48;72.91
50394;BME280;36308;46.312;25.288;2023-08-31T04:42:58;95601.78;;;15.54;72.99
50394;BME280;36308;46.312;25.288;2023-08-31T04:45:23;95590.31;;;15.57;73.01
50394;BME280;36308;46.312;25.288;2023-08-31T04:47:49;95587.91;;;15.56;73.07
50394;BME280;36308;46.312;25.288;2023-08-31T04:50:16;95586.03;;;15.56;73.00
50394;BME280;36308;46.312;25.288;2023-08-31T04:52:42;95593.13;;;15.66;72.88
50394;BME280;36308;46.312;25.288;2023-08-31T04:55:08;95584.59;;;15.59;73.20
50394;BME280;36308;46.312;25.288;2023-08-31T04:57:34;95597.38;;;15.72;72.87
50394;BME280;36308;46.312;25.288;2023-08-31T04:59:59;95602.22;;;15.75;72.67
50394;BME280;36308;46.312;25.288;2023-08-31T05:02:25;95604.59;;;15.77;72.55
50394;BME280;36308;46.312;25.288;2023-08-31T05:04:51;95592.53;;;15.69;72.25
50394;BME280;36308;46.312;25.288;2023-08-31T05:07:16;95606.50;;;15.76;72.51
50394;BME280;36308;46.312;25.288;2023-08-31T05:09:42;95615.06;;;15.84;72.25
50394;BME280;36308;46.312;25.288;2023-08-31T05:12:07;95624.69;;;15.90;72.35
50394;BME280;36308;46.312;25.288;2023-08-31T05:14:33;95602.09;;;15.81;72.43
50394;BME280;36308;46.312;25.288;2023-08-31T05:17:03;95627.81;;;15.97;72.66
50394;BME280;36308;46.312;25.288;2023-08-31T05:19:30;95634.03;;;15.98;73.05
50394;BME280;36308;46.312;25.288;2023-08-31T05:21:55;95637.44;;;16.03;72.98
50394;BME280;36308;46.312;25.288;2023-08-31T05:24:21;95640.34;;;16.07;73.36
50394;BME280;36308;46.312;25.288;2023-08-31T05:26:46;95635.16;;;16.10;72.92
50394;BME280;36308;46.312;25.288;2023-08-31T05:29:12;95639.34;;;16.16;72.80
50394;BME280;36308;46.312;25.288;2023-08-31T05:31:37;95645.75;;;16.21;73.03
50394;BME280;36308;46.312;25.288;2023-08-31T05:34:03;95645.16;;;16.24;72.87
50394;BME280;36308;46.312;25.288;2023-08-31T05:36:47;95647.75;;;16.29;73.03
50394;BME280;36308;46.312;25.288;2023-08-31T05:39:12;95647.16;;;16.32;72.88
50394;BME280;36308;46.312;25.288;2023-08-31T05:41:40;95645.75;;;16.34;72.44
50394;BME280;36308;46.312;25.288;2023-08-31T05:44:06;95650.59;;;16.38;72.18
50394;BME280;36308;46.312;25.288;2023-08-31T05:46:32;95659.41;;;16.43;71.92
50394;BME280;36308;46.312;25.288;2023-08-31T05:48:57;95662.81;;;16.49;72.09
50394;BME280;36308;46.312;25.288;2023-08-31T05:51:23;95655.97;;;16.51;72.05
50394;BME280;36308;46.312;25.288;2023-08-31T05:53:49;95647.44;;;16.58;71.98
50394;BME280;36308;46.312;25.288;2023-08-31T05:56:14;95650.81;;;16.64;71.26
50394;BME280;36308;46.312;25.288;2023-08-31T05:58:40;95663.97;;;16.70;71.19
50394;BME280;36308;46.312;25.288;2023-08-31T06:01:06;95656.50;;;16.76;70.44
50394;BME280;36308;46.312;25.288;2023-08-31T06:03:32;95654.53;;;16.82;70.52
50394;BME280;36308;46.312;25.288;2023-08-31T06:05:59;95658.03;;;16.82;70.48
50394;BME280;36308;46.312;25.288;2023-08-31T06:08:24;95661.00;;;16.94;70.15
50394;BME280;36308;46.312;25.288;2023-08-31T06:10:50;95668.44;;;17.03;70.39
50394;BME280;36308;46.312;25.288;2023-08-31T06:13:16;95676.13;;;17.09;70.23
50394;BME280;36308;46.312;25.288;2023-08-31T06:15:42;95668.25;;;17.22;70.03
50394;BME280;36308;46.312;25.288;2023-08-31T06:18:10;95667.19;;;17.31;69.44
50394;BME280;36308;46.312;25.288;2023-08-31T06:20:35;95666.94;;;17.42;69.18
50394;BME280;36308;46.312;25.288;2023-08-31T06:23:02;95666.06;;;17.55;69.21
50394;BME280;36308;46.312;25.288;2023-08-31T06:25:28;95661.00;;;17.62;69.01
50394;BME280;36308;46.312;25.288;2023-08-31T06:27:53;95669.38;;;17.74;68.45
50394;BME280;36308;46.312;25.288;2023-08-31T06:30:19;95689.00;;;17.94;68.02
50394;BME280;36308;46.312;25.288;2023-08-31T06:32:46;95686.50;;;18.06;67.82
50394;BME280;36308;46.312;25.288;2023-08-31T06:35:12;95683.50;;;18.16;67.37
50394;BME280;36308;46.312;25.288;2023-08-31T06:37:39;95682.75;;;18.25;66.97
50394;BME280;36308;46.312;25.288;2023-08-31T06:40:08;95686.28;;;18.34;66.35
50394;BME280;36308;46.312;25.288;2023-08-31T06:42:37;95694.63;;;18.46;65.83
50394;BME280;36308;46.312;25.288;2023-08-31T06:45:04;95692.09;;;18.58;65.42
50394;BME280;36308;46.312;25.288;2023-08-31T06:47:31;95676.56;;;18.59;64.79
50394;BME280;36308;46.312;25.288;2023-08-31T06:49:57;95691.72;;;18.83;64.79
50394;BME280;36308;46.312;25.288;2023-08-31T06:52:25;95692.19;;;18.93;64.58
50394;BME280;36308;46.312;25.288;2023-08-31T06:54:51;95693.47;;;19.05;64.43
50394;BME280;36308;46.312;25.288;2023-08-31T06:57:21;95708.88;;;19.18;64.25
50394;BME280;36308;46.312;25.288;2023-08-31T06:59:47;95697.78;;;19.32;63.71
50394;BME280;36308;46.312;25.288;2023-08-31T07:02:12;95703.75;;;19.43;63.36
50394;BME280;36308;46.312;25.288;2023-08-31T07:04:38;95712.06;;;19.55;63.22
50394;BME280;36308;46.312;25.288;2023-08-31T07:07:04;95712.03;;;19.64;63.11
50394;BME280;36308;46.312;25.288;2023-08-31T07:09:30;95720.06;;;19.77;62.95
50394;BME280;36308;46.312;25.288;2023-08-31T07:11:56;95719.41;;;19.89;62.21
50394;BME280;36308;46.312;25.288;2023-08-31T07:14:21;95717.59;;;20.02;61.95
50394;BME280;36308;46.312;25.288;2023-08-31T07:16:47;95725.75;;;20.11;61.26
50394;BME280;36308;46.312;25.288;2023-08-31T07:19:12;95720.28;;;20.19;60.52
50394;BME280;36308;46.312;25.288;2023-08-31T07:21:37;95722.00;;;20.24;60.33
50394;BME280;36308;46.312;25.288;2023-08-31T07:24:03;95729.69;;;20.31;60.13
50394;BME280;36308;46.312;25.288;2023-08-31T07:26:30;95720.97;;;20.37;60.11
50394;BME280;36308;46.312;25.288;2023-08-31T07:28:55;95725.97;;;20.44;60.30
50394;BME280;36308;46.312;25.288;2023-08-31T07:31:21;95723.97;;;20.53;60.24
50394;BME280;36308;46.312;25.288;2023-08-31T07:33:46;95719.75;;;20.65;59.84
50394;BME280;36308;46.312;25.288;2023-08-31T07:36:12;95721.00;;;20.76;59.94
50394;BME280;36308;46.312;25.288;2023-08-31T07:38:37;95721.88;;;20.89;59.61
50394;BME280;36308;46.312;25.288;2023-08-31T07:41:03;95736.88;;;21.04;59.58
50394;BME280;36308;46.312;25.288;2023-08-31T07:43:29;95735.84;;;21.17;59.64
50394;BME280;36308;46.312;25.288;2023-08-31T07:45:55;95730.91;;;21.31;59.39
50394;BME280;36308;46.312;25.288;2023-08-31T07:48:21;95725.69;;;21.38;59.24
50394;BME280;36308;46.312;25.288;2023-08-31T07:50:47;95735.03;;;21.58;59.05
50394;BME280;36308;46.312;25.288;2023-08-31T07:53:14;95737.47;;;21.72;58.60
50394;BME280;36308;46.312;25.288;2023-08-31T07:55:40;95732.03;;;21.85;58.28
50394;BME280;36308;46.312;25.288;2023-08-31T07:58:06;95725.22;;;21.91;57.87
50394;BME280;36308;46.312;25.288;2023-08-31T08:00:32;95737.59;;;22.09;57.25
50394;BME280;36308;46.312;25.288;2023-08-31T08:02:57;95742.28;;;22.21;56.95
50394;BME280;36308;46.312;25.288;2023-08-31T08:05:23;95733.78;;;22.35;56.80
50394;BME280;36308;46.312;25.288;2023-08-31T08:07:48;95737.44;;;22.51;56.68
50394;BME280;36308;46.312;25.288;2023-08-31T08:10:14;95735.53;;;22.64;56.26
50394;BME280;36308;46.312;25.288;2023-08-31T08:12:41;95746.13;;;22.78;55.69
50394;BME280;36308;46.312;25.288;2023-08-31T08:15:09;95742.59;;;22.90;55.10
50394;BME280;36308;46.312;25.288;2023-08-31T08:17:34;95753.41;;;22.98;55.27
50394;BME280;36308;46.312;25.288;2023-08-31T08:20:00;95746.38;;;23.10;55.42
50394;BME280;36308;46.312;25.288;2023-08-31T08:22:25;95751.81;;;23.22;55.49
50394;BME280;36308;46.312;25.288;2023-08-31T08:24:51;95759.78;;;23.39;55.24
50394;BME280;36308;46.312;25.288;2023-08-31T08:27:16;95757.00;;;23.52;54.17
50394;BME280;36308;46.312;25.288;2023-08-31T08:29:46;95760.50;;;23.65;54.36
50394;BME280;36308;46.312;25.288;2023-08-31T08:32:12;95764.47;;;23.79;54.31
50394;BME280;36308;46.312;25.288;2023-08-31T08:34:38;95750.25;;;23.90;54.09
50394;BME280;36308;46.312;25.288;2023-08-31T08:37:04;95748.34;;;24.06;53.55
50394;BME280;36308;46.312;25.288;2023-08-31T08:39:30;95740.38;;;24.17;53.20
50394;BME280;36308;46.312;25.288;2023-08-31T08:41:58;95744.28;;;24.32;53.32
50394;BME280;36308;46.312;25.288;2023-08-31T08:44:25;95748.31;;;24.50;53.10
50394;BME280;36308;46.312;25.288;2023-08-31T08:46:51;95749.91;;;24.67;52.53
50394;BME280;36308;46.312;25.288;2023-08-31T08:49:18;95760.00;;;24.79;51.67
50394;BME280;36308;46.312;25.288;2023-08-31T08:51:45;95739.34;;;24.85;51.58
50394;BME280;36308;46.312;25.288;2023-08-31T08:54:13;95740.47;;;25.00;51.08
50394;BME280;36308;46.312;25.288;2023-08-31T08:56:38;95730.25;;;25.00;50.53
50394;BME280;36308;46.312;25.288;2023-08-31T08:59:05;95747.97;;;25.19;50.33
50394;BME280;36308;46.312;25.288;2023-08-31T09:01:32;95745.84;;;25.28;50.35
50394;BME280;36308;46.312;25.288;2023-08-31T09:04:00;95741.78;;;25.41;50.92
50394;BME280;36308;46.312;25.288;2023-08-31T09:06:27;95751.53;;;25.55;50.83
50394;BME280;36308;46.312;25.288;2023-08-31T09:08:56;95728.41;;;25.59;50.44
50394;BME280;36308;46.312;25.288;2023-08-31T09:11:22;95758.84;;;25.86;50.39
50394;BME280;36308;46.312;25.288;2023-08-31T09:13:49;95757.19;;;26.01;49.13
50394;BME280;36308;46.312;25.288;2023-08-31T09:16:29;95757.75;;;26.10;47.71
50394;BME280;36308;46.312;25.288;2023-08-31T09:18:56;95761.94;;;26.24;47.61
50394;BME280;36308;46.312;25.288;2023-08-31T09:21:22;95750.59;;;26.29;47.68
50394;BME280;36308;46.312;25.288;2023-08-31T09:23:58;95757.47;;;26.38;47.45
50394;BME280;36308;46.312;25.288;2023-08-31T09:26:24;95754.91;;;26.49;47.47
50394;BME280;36308;46.312;25.288;2023-08-31T09:28:50;95753.88;;;26.57;47.25
50394;BME280;36308;46.312;25.288;2023-08-31T09:31:16;95755.28;;;26.71;47.06
50394;BME280;36308;46.312;25.288;2023-08-31T09:33:51;95741.72;;;26.85;46.28
50394;BME280;36308;46.312;25.288;2023-08-31T09:36:16;95748.22;;;26.96;45.71
50394;BME280;36308;46.312;25.288;2023-08-31T09:38:43;95758.19;;;27.05;45.18
50394;BME280;36308;46.312;25.288;2023-08-31T09:41:09;95759.03;;;27.09;44.86
50394;BME280;36308;46.312;25.288;2023-08-31T09:43:35;95756.38;;;27.16;44.72
50394;BME280;36308;46.312;25.288;2023-08-31T09:46:03;95751.00;;;27.23;43.73
50394;BME280;36308;46.312;25.288;2023-08-31T09:48:29;95750.25;;;27.26;43.69
50394;BME280;36308;46.312;25.288;2023-08-31T09:50:55;95743.16;;;27.25;43.43
50394;BME280;36308;46.312;25.288;2023-08-31T09:53:21;95734.16;;;27.32;43.58
50394;BME280;36308;46.312;25.288;2023-08-31T09:55:51;95748.22;;;27.50;43.47
50394;BME280;36308;46.312;25.288;2023-08-31T09:58:20;95750.72;;;27.62;43.01
50394;BME280;36308;46.312;25.288;2023-08-31T10:01:05;95754.78;;;27.72;42.62
50394;BME280;36308;46.312;25.288;2023-08-31T10:03:31;95752.91;;;27.79;42.82
50394;BME280;36308;46.312;25.288;2023-08-31T10:05:56;95766.84;;;27.87;42.55
50394;BME280;36308;46.312;25.288;2023-08-31T10:08:22;95758.91;;;27.85;41.77
50394;BME280;36308;46.312;25.288;2023-08-31T10:10:49;95767.56;;;27.84;41.58
50394;BME280;36308;46.312;25.288;2023-08-31T10:13:15;95767.47;;;27.76;42.02
50394;BME280;36308;46.312;25.288;2023-08-31T10:15:44;95769.06;;;27.77;42.32
50394;BME280;36308;46.312;25.288;2023-08-31T10:18:09;95759.53;;;27.71;42.07
50394;BME280;36308;46.312;25.288;2023-08-31T10:20:35;95758.81;;;27.78;42.27
50394;BME280;36308;46.312;25.288;2023-08-31T10:23:05;95765.97;;;27.82;42.11
50394;BME280;36308;46.312;25.288;2023-08-31T10:28:41;95772.50;;;27.97;42.32
50394;BME280;36308;46.312;25.288;2023-08-31T10:31:09;95765.38;;;27.96;42.20
50394;BME280;36308;46.312;25.288;2023-08-31T10:33:46;95769.28;;;27.92;41.88
50394;BME280;36308;46.312;25.288;2023-08-31T10:36:15;95777.16;;;27.90;41.68
50394;BME280;36308;46.312;25.288;2023-08-31T10:38:44;95768.72;;;27.82;41.80
50394;BME280;36308;46.312;25.288;2023-08-31T10:43:49;95770.22;;;27.76;41.63
50394;BME280;36308;46.312;25.288;2023-08-31T10:46:34;95765.09;;;27.75;42.18
50394;BME280;36308;46.312;25.288;2023-08-31T10:49:12;95765.06;;;27.71;42.12
50394;BME280;36308;46.312;25.288;2023-08-31T10:51:41;95768.19;;;27.70;42.03
50394;BME280;36308;46.312;25.288;2023-08-31T10:54:21;95765.38;;;27.66;42.18
50394;BME280;36308;46.312;25.288;2023-08-31T10:59:46;95780.00;;;27.67;42.22
50394;BME280;36308;46.312;25.288;2023-08-31T11:07:47;95782.22;;;27.57;42.32
50394;BME280;36308;46.312;25.288;2023-08-31T11:12:48;95780.25;;;27.58;42.41
50394;BME280;36308;46.312;25.288;2023-08-31T11:15:16;95775.91;;;27.57;42.46
50394;BME280;36308;46.312;25.288;2023-08-31T11:17:42;95771.97;;;27.58;42.57
50394;BME280;36308;46.312;25.288;2023-08-31T11:20:19;95779.16;;;27.66;42.89
50394;BME280;36308;46.312;25.288;2023-08-31T11:22:49;95773.75;;;27.73;43.14
50394;BME280;36308;46.312;25.288;2023-08-31T11:25:16;95771.91;;;27.85;43.13
50394;BME280;36308;46.312;25.288;2023-08-31T11:27:41;95772.47;;;27.94;42.89
50394;BME280;36308;46.312;25.288;2023-08-31T11:30:16;95776.47;;;28.00;42.50
50394;BME280;36308;46.312;25.288;2023-08-31T11:32:46;95780.06;;;28.04;41.87
50394;BME280;36308;46.312;25.288;2023-08-31T11:35:12;95776.53;;;28.07;41.84
50394;BME280;36308;46.312;25.288;2023-08-31T11:37:37;95772.69;;;28.15;41.75
50394;BME280;36308;46.312;25.288;2023-08-31T11:40:03;95783.06;;;28.26;41.69
50394;BME280;36308;46.312;25.288;2023-08-31T11:42:31;95779.22;;;28.34;41.27
50394;BME280;36308;46.312;25.288;2023-08-31T11:44:57;95784.00;;;28.37;40.98
50394;BME280;36308;46.312;25.288;2023-08-31T11:47:23;95775.66;;;28.33;41.01
50394;BME280;36308;46.312;25.288;2023-08-31T11:49:50;95772.09;;;28.33;41.07
50394;BME280;36308;46.312;25.288;2023-08-31T11:52:16;95778.00;;;28.31;40.80
50394;BME280;36308;46.312;25.288;2023-08-31T11:54:42;95779.22;;;28.34;40.88
50394;BME280;36308;46.312;25.288;2023-08-31T11:57:09;95778.03;;;28.35;40.68
50394;BME280;36308;46.312;25.288;2023-08-31T11:59:36;95789.53;;;28.37;40.55
50394;BME280;36308;46.312;25.288;2023-08-31T12:02:05;95785.56;;;28.38;40.31
50394;BME280;36308;46.312;25.288;2023-08-31T12:04:32;95786.34;;;28.38;40.70
50394;BME280;36308;46.312;25.288;2023-08-31T12:07:02;95776.81;;;28.32;40.29
50394;BME280;36308;46.312;25.288;2023-08-31T12:09:30;95780.00;;;28.34;40.40
50394;BME280;36308;46.312;25.288;2023-08-31T12:11:56;95780.78;;;28.31;40.51
50394;BME280;36308;46.312;25.288;2023-08-31T12:14:25;95791.88;;;28.35;40.50
50394;BME280;36308;46.312;25.288;2023-08-31T12:16:53;95784.72;;;28.34;40.22
50394;BME280;36308;46.312;25.288;2023-08-31T12:19:27;95784.28;;;28.28;40.14
50394;BME280;36308;46.312;25.288;2023-08-31T12:21:54;95780.69;;;28.24;40.46
50394;BME280;36308;46.312;25.288;2023-08-31T12:24:20;95788.56;;;28.22;40.32
50394;BME280;36308;46.312;25.288;2023-08-31T12:26:47;95779.81;;;28.16;40.31
50394;BME280;36308;46.312;25.288;2023-08-31T12:29:13;95777.81;;;28.13;40.62
50394;BME280;36308;46.312;25.288;2023-08-31T12:31:38;95775.00;;;28.10;40.74
50394;BME280;36308;46.312;25.288;2023-08-31T12:34:04;95771.78;;;28.04;40.87
50394;BME280;36308;46.312;25.288;2023-08-31T12:36:32;95778.91;;;28.05;41.15
50394;BME280;36308;46.312;25.288;2023-08-31T12:38:57;95784.00;;;28.03;41.45
50394;BME280;36308;46.312;25.288;2023-08-31T12:41:27;95774.44;;;27.97;41.34
50394;BME280;36308;46.312;25.288;2023-08-31T12:43:53;95777.16;;;27.90;41.45
50394;BME280;36308;46.312;25.288;2023-08-31T12:46:19;95771.88;;;27.81;41.76
50394;BME280;36308;46.312;25.288;2023-08-31T12:48:44;95769.78;;;27.71;41.80
50394;BME280;36308;46.312;25.288;2023-08-31T12:51:10;95782.63;;;27.59;42.18
50394;BME280;36308;46.312;25.288;2023-08-31T12:53:38;95787.59;;;27.47;42.36
50394;BME280;36308;46.312;25.288;2023-08-31T12:56:05;95797.72;;;27.35;43.15
50394;BME280;36308;46.312;25.288;2023-08-31T12:58:31;95798.34;;;27.25;43.46
50394;BME280;36308;46.312;25.288;2023-08-31T13:01:00;95793.78;;;27.13;44.03
50394;BME280;36308;46.312;25.288;2023-08-31T13:03:26;95796.41;;;27.02;43.83
50394;BME280;36308;46.312;25.288;2023-08-31T13:05:51;95797.75;;;26.89;43.91
50394;BME280;36308;46.312;25.288;2023-08-31T13:08:17;95796.78;;;26.78;43.80
50394;BME280;36308;46.312;25.288;2023-08-31T13:10:42;95802.06;;;26.64;43.63
50394;BME280;36308;46.312;25.288;2023-08-31T13:13:08;95793.56;;;26.53;43.44